Terminal Aerodrome Forecast
Issued by NWS Kansas City/Pleasant Hill, MO

Home | Current Version | Previous Version | Text Only | Print | Product List | Glossary On
Versions: 1 2 3 4 5 6 7 8 9 10 11 12 13 14 15
000
FTUS43 KEAX 280524
TAFMCI
TAF
KMCI 280524Z 2806/0106 18011KT P6SM BKN025
      TEMPO 2806/2808 4SM BR BKN015
     FM280800 19014KT P6SM VCSH BKN015
     FM281500 21015G22KT P6SM SCT035
     FM010000 33012KT P6SM VCSH OVC040=

USA.gov is the U.S. government's official web portal to all federal, state and local government web resources and services.